الصفحة الرئيسية
METAR-TAF:

METAR-TAF

مطار :

مطار كانساي الدولي, اليابان

دائرة عرض: 34-25N, خط طول: 135-15E, ارتفاع: 5 متر

مراقبة الطقس الحالي

تاريخ ووقت الإصدار 23 دقيقة قبل الساعة 03:00UTC
ريح 9 عقدة من الجنوب الغربي
درجة الحرارة 25°درجة مئوية
الرطوبة 94%
ضغط 1010 hPa
الرؤية 10 كم أو أكثر
غيوم قليلة على ارتفاع 1500 قدم
غيوم متفرقة على ارتفاع 4500 قدم
غيوم مفككة على ارتفاع 12000 قدم
زخات من الأمطار الخفيفة,

METAR: RJBB 250300Z 23009KT 9999 -SHRA FEW015 SCT045 BKN120 25/24 Q1010 NOSIG

زمن: 12:23 (03:23 UTC)

توقعات

تاريخ ووقت الإصدار 4ساعات و 14 دقيقة قبل الساعة 23:09UTC
التوقعات صالحة من25 الساعة 00 UTC إلى 26 الساعة 06 UTC
ريح 7 عقدة من الغرب
الرؤية 10 كم أو أكثر
غيوم قليلة على ارتفاع 1500 قدم
غيوم متفرقة على ارتفاع 5000 قدم

TAF: RJBB 242309Z 2500/2606 26007KT 9999 FEW015 SCT050

أرصاد الطقس والتوقعات من أكثر من 4000 مطار (تقارير الطقس للمطار METAR والتنبؤ بالطقس بالمطارTAF).

المحطات المتاحة هي النقط الصفراء والحمراء على الخريطة.

حرك المؤشر فوق النقطة لمعرفة اسم المحطة.

ثم انقر لمعرفة أرصاد وتوقعات الطقس.

لتغيير الخارطة: اضغط على الأزرار الخضراء مع رمز الصليب الأسود للتكبير. على الزر الأخضر مع شرطة للتصغير، أو على الأسهم الخضراء للخرائط المجاورة.


METAR-TAF: